Terminal Aerodrome Forecast
Issued by NWS Pueblo, CO

Home | Current Version | Previous Version | Text Only | Print | Product List | Glossary On
Versions: 1 2 3 4 5 6 7 8 9 10 11 12 13 14 15 16 17 18 19 20 21 22 23 24
000
FTUS45 KPUB 302331
TAFALS
TAF
KALS 302331Z 3100/3124 22011KT P6SM SCT090
     FM310200 23008KT P6SM SCT070 SCT140
     FM310500 VRB05KT P6SM SCT100 BKN150
     FM312000 20008KT P6SM VCTS BKN100CB=

USA.gov is the U.S. government's official web portal to all federal, state and local government web resources and services.